createdAt,value
2019-04-16T00:01:35.699Z,2.35
2019-04-16T00:04:03.748Z,2.98
2019-04-16T00:06:31.948Z,2.45
2019-04-16T00:09:01.762Z,2.55
2019-04-16T00:11:29.885Z,2.83
2019-04-16T00:14:03.013Z,2.58
2019-04-16T00:16:27.705Z,2.62
2019-04-16T00:18:58.123Z,2.30
2019-04-16T00:21:25.288Z,2.20
2019-04-16T00:23:53.375Z,2.20
2019-04-16T00:26:21.419Z,2.00
2019-04-16T00:28:49.265Z,1.87
2019-04-16T00:31:17.681Z,2.98
2019-04-16T00:33:45.548Z,2.30
2019-04-16T00:36:15.393Z,3.25
2019-04-16T00:38:45.487Z,1.80
2019-04-16T00:41:13.255Z,2.47
2019-04-16T00:43:44.147Z,2.95
2019-04-16T00:46:12.119Z,2.30
2019-04-16T00:48:40.290Z,4.12
2019-04-16T00:51:08.279Z,1.82
2019-04-16T00:53:36.357Z,2.72
2019-04-16T00:56:05.469Z,2.20
2019-04-16T00:58:33.401Z,3.62
2019-04-16T01:01:01.534Z,2.20
2019-04-16T01:03:34.963Z,2.58
2019-04-16T01:06:06.765Z,2.22
2019-04-16T01:08:32.641Z,3.67
2019-04-16T01:11:03.713Z,3.17
2019-04-16T01:13:31.774Z,3.00
2019-04-16T01:16:02.492Z,3.10
2019-04-16T01:18:29.809Z,2.33
2019-04-16T01:21:00.289Z,2.55
2019-04-16T01:23:29.139Z,3.30
2019-04-16T01:25:57.688Z,2.52
2019-04-16T01:28:26.045Z,2.45
2019-04-16T01:30:57.627Z,3.12
2019-04-16T01:33:25.645Z,3.12
2019-04-16T01:35:54.101Z,3.98
2019-04-16T01:38:27.690Z,3.33
2019-04-16T01:40:53.747Z,3.40
2019-04-16T01:43:25.474Z,3.65
2019-04-16T01:45:51.289Z,3.10
2019-04-16T01:48:19.678Z,3.27
2019-04-16T01:50:47.740Z,3.50
2019-04-16T01:53:18.385Z,3.52
2019-04-16T01:55:45.402Z,3.70
2019-04-16T01:58:13.699Z,3.10
2019-04-16T02:00:41.527Z,3.37
2019-04-16T02:03:09.192Z,4.72
2019-04-16T02:05:37.024Z,3.45
2019-04-16T02:08:07.796Z,3.72
2019-04-16T02:10:38.468Z,3.40
2019-04-16T02:13:05.592Z,3.98
2019-04-16T02:15:33.836Z,4.08
2019-04-16T02:18:01.884Z,4.67
2019-04-16T02:20:30.117Z,3.92
2019-04-16T02:22:58.656Z,3.92
2019-04-16T02:25:26.756Z,4.60
2019-04-16T02:27:57.015Z,4.25
2019-04-16T02:30:24.380Z,4.40
2019-04-16T02:32:52.556Z,4.78
2019-04-16T02:35:21.039Z,4.80
2019-04-16T02:37:52.318Z,4.15
2019-04-16T02:40:20.335Z,5.40
2019-04-16T02:42:51.808Z,4.47
2019-04-16T02:45:23.560Z,4.58
2019-04-16T02:47:51.635Z,4.05
2019-04-16T02:50:19.580Z,4.22
2019-04-16T02:52:51.136Z,4.67
2019-04-16T02:55:26.837Z,4.70
2019-04-16T02:57:59.543Z,3.85
2019-04-16T03:00:24.419Z,6.33
2019-04-16T03:03:03.002Z,5.65
2019-04-16T03:05:30.883Z,4.50
2019-04-16T03:08:01.483Z,5.62
2019-04-16T03:10:29.576Z,5.40
2019-04-16T03:12:57.563Z,7.17
2019-04-16T03:15:25.774Z,5.25
2019-04-16T03:17:53.469Z,5.50
2019-04-16T03:20:24.690Z,6.08
2019-04-16T03:22:52.602Z,5.28
2019-04-16T03:25:20.399Z,5.55
2019-04-16T03:27:51.558Z,7.53
2019-04-16T03:30:21.447Z,8.50
2019-04-16T03:32:49.075Z,5.10
2019-04-16T03:35:22.716Z,5.00
2019-04-16T03:37:47.686Z,7.25
2019-04-16T03:40:18.905Z,7.12
2019-04-16T03:42:46.291Z,6.70
2019-04-16T03:45:14.307Z,7.65
2019-04-16T03:47:42.408Z,6.22
2019-04-16T03:50:10.901Z,7.62
2019-04-16T03:52:40.868Z,7.67
2019-04-16T03:55:08.866Z,6.80
2019-04-16T03:57:36.972Z,8.58
2019-04-16T04:00:05.145Z,7.15
2019-04-16T04:02:33.212Z,9.28
2019-04-16T04:05:06.177Z,7.60
2019-04-16T04:07:30.777Z,8.03
2019-04-16T04:09:58.924Z,7.78
2019-04-16T04:12:27.873Z,8.03
2019-04-16T04:14:55.761Z,8.15
2019-04-16T04:17:25.184Z,7.20
2019-04-16T04:19:53.466Z,7.50
2019-04-16T04:22:22.775Z,7.95
2019-04-16T04:24:51.037Z,7.35
2019-04-16T04:27:19.763Z,7.78
2019-04-16T04:29:48.007Z,7.92
2019-04-16T04:32:16.028Z,7.33
2019-04-16T04:34:45.408Z,8.35
2019-04-16T04:37:13.786Z,7.85
2019-04-16T04:39:44.142Z,7.65
2019-04-16T04:42:10.918Z,7.60
2019-04-16T04:44:38.860Z,8.55
2019-04-16T04:47:07.194Z,7.80
2019-04-16T04:49:35.359Z,8.28
2019-04-16T04:52:04.279Z,8.58
2019-04-16T04:54:32.350Z,8.68
2019-04-16T04:57:00.474Z,8.13
2019-04-16T04:59:28.457Z,8.33
2019-04-16T05:01:56.442Z,8.08
2019-04-16T05:04:24.610Z,7.95
2019-04-16T05:06:54.322Z,8.45
2019-04-16T05:09:22.144Z,7.15
2019-04-16T05:11:50.189Z,7.97
2019-04-16T05:14:20.758Z,7.92
2019-04-16T05:16:50.207Z,7.72
2019-04-16T05:19:18.031Z,8.38
2019-04-16T05:21:49.721Z,8.25
2019-04-16T05:24:15.497Z,8.70
2019-04-16T05:26:43.442Z,7.83
2019-04-16T05:29:16.069Z,7.95
2019-04-16T05:31:41.295Z,8.10
2019-04-16T05:34:09.602Z,8.20
2019-04-16T05:36:40.175Z,7.83
2019-04-16T05:39:07.217Z,7.35
2019-04-16T05:41:36.057Z,8.78
2019-04-16T05:44:03.968Z,7.53
2019-04-16T05:46:32.353Z,8.35
2019-04-16T05:49:00.670Z,7.80
2019-04-16T05:51:31.414Z,7.85
2019-04-16T05:53:59.810Z,8.10
2019-04-16T05:56:27.628Z,8.13
2019-04-16T05:58:55.832Z,8.18
2019-04-16T06:01:23.985Z,7.92
2019-04-16T06:03:53.418Z,7.95
2019-04-16T06:06:21.238Z,8.40
2019-04-16T06:08:49.445Z,8.45
2019-04-16T06:11:28.733Z,7.92
2019-04-16T06:13:48.750Z,8.85
2019-04-16T06:16:24.149Z,8.25
2019-04-16T06:18:49.414Z,7.50
2019-04-16T06:21:17.585Z,8.28
2019-04-16T06:23:48.308Z,7.78
2019-04-16T06:26:16.863Z,8.03
2019-04-16T06:28:45.201Z,8.65
2019-04-16T06:31:13.679Z,7.78
2019-04-16T06:33:43.332Z,8.30
2019-04-16T06:36:11.556Z,8.13
2019-04-16T06:38:40.734Z,8.08
2019-04-16T06:41:08.588Z,7.78
2019-04-16T06:43:36.660Z,8.60
2019-04-16T06:46:05.486Z,8.40
2019-04-16T06:48:34.283Z,7.58
2019-04-16T06:51:02.355Z,8.05
2019-04-16T06:53:30.900Z,7.67
2019-04-16T06:55:58.793Z,7.62
2019-04-16T06:58:27.891Z,8.03
2019-04-16T07:00:57.283Z,8.03
2019-04-16T07:03:27.315Z,8.00
2019-04-16T07:05:54.758Z,7.37
2019-04-16T07:08:22.813Z,8.03
2019-04-16T07:10:51.005Z,7.10
2019-04-16T07:13:19.000Z,8.08
2019-04-16T07:15:46.952Z,7.75
2019-04-16T07:18:14.994Z,7.42
2019-04-16T07:20:45.670Z,8.08
2019-04-16T07:23:18.191Z,7.53
2019-04-16T07:25:48.081Z,7.70
2019-04-16T07:30:49.756Z,7.87
2019-04-16T07:33:21.408Z,7.12
2019-04-16T07:35:46.196Z,7.85
2019-04-16T07:38:18.389Z,7.58
2019-04-16T07:40:46.513Z,7.10
2019-04-16T07:43:15.969Z,7.47
2019-04-16T07:45:43.676Z,6.97
2019-04-16T07:48:11.752Z,6.78
2019-04-16T07:50:39.639Z,7.15
2019-04-16T07:53:07.767Z,7.42
2019-04-16T07:55:35.762Z,6.97
2019-04-16T07:58:03.716Z,7.03
2019-04-16T08:00:31.856Z,6.60
2019-04-16T08:03:00.494Z,7.62
2019-04-16T08:05:28.892Z,6.85
2019-04-16T08:08:01.853Z,6.75
2019-04-16T08:10:32.207Z,7.80
2019-04-16T08:13:01.739Z,6.58
2019-04-16T08:15:29.773Z,6.40
2019-04-16T08:17:57.940Z,6.80
2019-04-16T08:20:25.859Z,6.42
2019-04-16T08:22:54.130Z,6.75
2019-04-16T08:25:22.466Z,6.42
2019-04-16T08:27:50.754Z,6.30
2019-04-16T08:30:19.771Z,6.65
2019-04-16T08:32:48.863Z,6.50
2019-04-16T08:35:23.916Z,6.30
2019-04-16T08:37:52.344Z,6.55
2019-04-16T08:40:20.335Z,6.42
2019-04-16T08:42:48.648Z,6.10
2019-04-16T08:45:16.517Z,6.28
2019-04-16T08:47:44.971Z,6.47
2019-04-16T08:50:14.228Z,6.72
2019-04-16T08:52:42.608Z,6.90
2019-04-16T08:55:10.827Z,6.58
2019-04-16T08:57:38.870Z,6.67
2019-04-16T09:00:06.970Z,6.78
2019-04-16T09:02:35.013Z,6.33
2019-04-16T09:05:05.888Z,6.45
2019-04-16T09:07:32.504Z,6.20
2019-04-16T09:10:00.556Z,5.92
2019-04-16T09:12:28.933Z,6.15
2019-04-16T09:14:56.881Z,5.83
2019-04-16T09:17:26.274Z,5.80
2019-04-16T09:19:54.445Z,5.50
2019-04-16T09:22:22.730Z,5.90
2019-04-16T09:24:59.692Z,5.55
2019-04-16T09:27:33.968Z,6.10
2019-04-16T09:30:00.511Z,5.75
2019-04-16T09:32:28.602Z,5.83
2019-04-16T09:35:07.943Z,8.18
2019-04-16T09:37:28.668Z,9.30
2019-04-16T09:39:59.868Z,5.80
2019-04-16T09:42:28.268Z,8.40
2019-04-16T09:44:56.426Z,7.78
2019-04-16T09:47:24.686Z,5.85
2019-04-16T09:49:53.641Z,5.05
2019-04-16T09:52:23.219Z,6.45
2019-04-16T09:54:50.982Z,6.30
2019-04-16T09:57:19.347Z,5.25
2019-04-16T09:59:47.794Z,5.28
2019-04-16T10:02:17.282Z,6.67
2019-04-16T10:04:45.056Z,9.10
2019-04-16T10:07:14.005Z,9.75
2019-04-16T10:09:42.420Z,14.23
2019-04-16T10:12:10.389Z,11.93
2019-04-16T10:14:38.449Z,21.10
2019-04-16T10:17:06.550Z,21.57
2019-04-16T10:19:34.731Z,27.45
2019-04-16T10:22:02.738Z,36.88
2019-04-16T10:24:30.982Z,24.43
2019-04-16T10:26:59.954Z,40.95
2019-04-16T10:29:28.813Z,30.08
2019-04-16T10:31:56.619Z,28.77
2019-04-16T10:34:24.767Z,47.88
2019-04-16T10:36:52.626Z,79.77
2019-04-16T10:39:22.955Z,101.70
2019-04-16T10:41:50.971Z,189.97
2019-04-16T10:44:20.643Z,102.95
2019-04-16T10:46:48.997Z,164.32
2019-04-16T10:49:17.294Z,111.05
2019-04-16T10:51:45.411Z,63.73
2019-04-16T10:54:13.451Z,37.67
2019-04-16T10:56:41.335Z,27.40
2019-04-16T10:59:09.637Z,19.05
2019-04-16T11:02:35.227Z,25.02
2019-04-16T11:04:17.776Z,17.98
2019-04-16T11:22:11.331Z,13.93
2019-04-16T11:24:41.763Z,9.43
2019-04-16T11:30:32.428Z,11.70
2019-04-16T11:35:53.011Z,8.90
2019-04-16T11:41:00.299Z,10.70
2019-04-16T11:43:28.489Z,9.40
2019-04-16T11:45:56.537Z,10.20
2019-04-16T11:48:24.724Z,6.83
2019-04-16T11:50:53.250Z,8.05
2019-04-16T11:53:21.702Z,8.20
2019-04-16T11:55:50.183Z,9.60
2019-04-16T11:58:18.203Z,8.13
2019-04-16T12:00:47.079Z,6.65
2019-04-16T12:03:15.234Z,7.87
2019-04-16T12:05:43.165Z,12.35
2019-04-16T12:08:10.963Z,15.63
2019-04-16T12:10:38.710Z,17.02
2019-04-16T12:13:06.727Z,10.60
2019-04-16T12:15:35.568Z,8.23
2019-04-16T12:18:03.401Z,9.78
2019-04-16T12:20:31.469Z,9.75
2019-04-16T12:22:59.651Z,11.85
2019-04-16T12:25:29.290Z,18.82
2019-04-16T12:27:57.931Z,15.90
2019-04-16T12:30:27.287Z,8.10
2019-04-16T12:32:55.587Z,8.28
2019-04-16T12:35:23.714Z,7.80
2019-04-16T12:37:53.342Z,8.30
2019-04-16T12:40:21.463Z,10.13
2019-04-16T12:42:49.605Z,11.43
2019-04-16T12:45:17.886Z,9.93
2019-04-16T12:47:46.036Z,8.33
2019-04-16T12:50:16.741Z,8.70
2019-04-16T12:52:44.029Z,14.13
2019-04-16T13:00:42.190Z,10.82
2019-04-16T13:05:47.549Z,10.95
2019-04-16T13:11:07.734Z,7.62
2019-04-16T13:13:33.735Z,8.60
2019-04-16T13:16:01.772Z,7.30
2019-04-16T13:21:53.463Z,7.35
2019-04-16T13:27:14.502Z,7.45
2019-04-16T13:30:03.073Z,7.25
2019-04-16T13:32:19.617Z,7.12
2019-04-16T13:34:48.255Z,6.67
2019-04-16T13:37:16.128Z,8.28
2019-04-16T13:39:44.274Z,7.08
2019-04-16T13:42:27.144Z,8.80
2019-04-16T13:45:15.205Z,7.75
2019-04-16T13:47:42.774Z,7.92
2019-04-16T13:50:36.012Z,9.15
2019-04-16T13:53:00.322Z,8.85
2019-04-16T13:55:28.554Z,7.03
2019-04-16T13:57:57.077Z,7.17
2019-04-16T14:00:26.005Z,8.45
2019-04-16T14:03:03.075Z,6.70
2019-04-16T14:05:37.397Z,6.58
2019-04-16T14:08:04.860Z,8.03
2019-04-16T16:08:43.931Z,4.87
2019-04-16T16:11:16.363Z,5.95
2019-04-16T16:13:51.055Z,2.50
2019-04-16T16:16:18.070Z,3.98
2019-04-16T16:18:45.674Z,2.58
2019-04-16T16:21:13.737Z,3.70
2019-04-16T16:23:42.126Z,4.30
2019-04-16T16:26:17.325Z,2.67
2019-04-16T16:28:48.611Z,2.47
2019-04-16T16:31:16.972Z,3.02
2019-04-16T16:33:45.352Z,3.80
2019-04-16T16:36:13.741Z,2.90
2019-04-16T16:38:48.554Z,2.40
2019-04-16T16:41:15.405Z,3.33
2019-04-16T16:43:43.854Z,2.50
2019-04-16T16:46:15.049Z,2.60
2019-04-16T16:48:45.752Z,2.85
2019-04-16T16:51:15.702Z,3.20
2019-04-16T16:53:55.734Z,2.42
2019-04-16T16:56:24.275Z,2.85
2019-04-16T16:58:50.962Z,4.70
2019-04-16T17:01:19.872Z,2.90
2019-04-16T17:03:52.625Z,2.83
2019-04-16T17:06:19.287Z,4.22
2019-04-16T17:08:50.840Z,2.98
2019-04-16T17:11:19.207Z,3.05
2019-04-16T17:13:47.911Z,3.27
2019-04-16T17:16:16.085Z,2.90
2019-04-16T17:18:45.570Z,3.15
2019-04-16T17:21:13.566Z,3.08
2019-04-16T17:23:41.820Z,2.65
2019-04-16T17:26:16.043Z,2.85
2019-04-16T17:28:44.240Z,2.30
2019-04-16T17:31:13.121Z,3.10
2019-04-16T17:33:42.010Z,3.08
2019-04-16T17:36:10.291Z,3.22
2019-04-16T17:38:38.782Z,3.92
2019-04-16T17:41:07.113Z,4.20
2019-04-16T17:43:35.655Z,3.30
2019-04-16T17:46:03.905Z,3.02
2019-04-16T17:48:32.384Z,3.10
2019-04-16T17:51:01.209Z,2.83
2019-04-16T17:53:29.458Z,3.02
2019-04-16T17:55:57.533Z,2.50
2019-04-16T17:58:27.392Z,3.08
2019-04-16T18:00:58.071Z,2.63
2019-04-16T18:03:26.573Z,2.92
2019-04-16T18:05:54.840Z,2.80
2019-04-16T18:08:23.104Z,3.10
2019-04-16T18:10:54.633Z,2.50
2019-04-16T18:13:23.280Z,3.42
2019-04-16T18:15:51.492Z,3.30
2019-04-16T18:18:19.844Z,2.70
2019-04-16T18:20:57.323Z,2.75
2019-04-16T18:23:17.776Z,2.70
2019-04-16T18:25:55.421Z,3.33
2019-04-16T18:28:15.484Z,3.25
2019-04-16T18:30:48.165Z,2.30
2019-04-16T18:33:16.219Z,2.25
2019-04-16T18:35:44.513Z,3.47
2019-04-16T18:38:12.586Z,3.12
2019-04-16T18:40:40.597Z,2.55
2019-04-16T18:43:08.933Z,2.87
2019-04-16T18:45:36.624Z,2.25
2019-04-16T18:48:12.316Z,2.47
2019-04-16T18:50:34.291Z,2.60
2019-04-16T18:53:02.651Z,2.85
2019-04-16T18:55:31.128Z,2.40
2019-04-16T18:57:59.408Z,3.65
2019-04-16T19:00:28.608Z,2.42
2019-04-16T19:03:00.470Z,1.83
2019-04-16T19:05:28.752Z,3.12
2019-04-16T19:08:00.200Z,2.55
2019-04-16T19:10:26.844Z,3.92
2019-04-16T19:12:54.966Z,2.20
2019-04-16T19:15:25.950Z,2.27
2019-04-16T19:17:54.184Z,2.50
2019-04-16T19:20:22.413Z,3.30
2019-04-16T19:22:50.753Z,2.83
2019-04-16T19:25:18.656Z,2.42
2019-04-16T19:27:48.930Z,2.58
2019-04-16T19:30:16.341Z,2.72
2019-04-16T19:32:47.904Z,2.60
2019-04-16T19:35:20.552Z,2.40
2019-04-16T19:37:46.411Z,2.35
2019-04-16T19:40:16.026Z,3.25
2019-04-16T19:42:43.795Z,2.22
2019-04-16T19:45:12.785Z,2.50
2019-04-16T19:47:40.893Z,2.08
2019-04-16T19:50:08.683Z,2.47
2019-04-16T19:52:36.959Z,2.35
2019-04-16T19:55:05.476Z,2.58
2019-04-16T19:57:33.551Z,3.60
2019-04-16T20:00:01.804Z,2.40
2019-04-16T20:02:33.027Z,2.45
2019-04-16T20:04:59.185Z,2.37
2019-04-16T20:07:32.659Z,2.37
2019-04-16T20:09:57.069Z,3.22
2019-04-16T20:12:28.072Z,2.20
2019-04-16T20:14:54.848Z,2.00
2019-04-16T20:17:22.934Z,2.17
2019-04-16T20:19:51.007Z,2.30
2019-04-16T20:22:18.877Z,2.40
2019-04-16T20:24:46.705Z,2.17
2019-04-16T20:27:19.529Z,2.02
2019-04-16T20:29:47.145Z,2.30
2019-04-16T20:32:15.286Z,3.15
2019-04-16T20:34:45.256Z,2.52
2019-04-16T20:37:13.148Z,2.15
2019-04-16T20:39:41.347Z,2.67
2019-04-16T20:42:09.580Z,2.77
2019-04-16T20:44:37.874Z,2.35
2019-04-16T20:47:08.631Z,2.47
2019-04-16T20:49:35.376Z,2.40
2019-04-16T20:52:03.733Z,3.72
2019-04-16T20:54:31.810Z,2.67
2019-04-16T20:57:00.186Z,2.17
2019-04-16T20:59:28.466Z,3.00
2019-04-16T21:01:56.758Z,3.08
2019-04-16T21:04:25.013Z,2.40
2019-04-16T21:06:53.197Z,2.50
2019-04-16T21:09:26.845Z,3.20
2019-04-16T21:11:54.562Z,2.70
2019-04-16T21:14:22.771Z,2.37
2019-04-16T21:16:50.621Z,2.90
2019-04-16T21:19:23.302Z,2.83
2019-04-16T21:21:48.295Z,2.50
2019-04-16T21:24:16.980Z,2.45
2019-04-16T21:26:44.820Z,2.40
2019-04-16T21:29:14.487Z,2.95
2019-04-16T21:31:45.189Z,2.80
2019-04-16T21:34:13.562Z,2.30
2019-04-16T21:36:41.555Z,3.35
2019-04-16T21:39:09.512Z,2.25
2019-04-16T21:41:38.095Z,3.15
2019-04-16T21:44:12.080Z,2.33
2019-04-16T21:46:37.439Z,2.42
2019-04-16T21:49:10.823Z,3.90
2019-04-16T21:51:44.769Z,2.95
2019-04-16T21:54:12.908Z,3.55
2019-04-16T21:56:41.037Z,3.02
2019-04-16T21:59:09.112Z,4.00
2019-04-16T22:01:36.965Z,3.72
2019-04-16T22:04:05.089Z,4.37
2019-04-16T22:06:33.059Z,12.35
2019-04-16T22:09:03.281Z,10.25
2019-04-16T22:11:30.715Z,9.17
2019-04-16T22:13:59.016Z,9.30
2019-04-16T22:16:29.942Z,8.48
2019-04-16T22:18:56.988Z,8.38
2019-04-16T22:21:25.284Z,8.83
2019-04-16T22:23:53.256Z,9.15
2019-04-16T22:26:21.224Z,8.98
2019-04-16T22:28:49.280Z,10.03
2019-04-16T22:31:17.670Z,9.60
